Time;durP1;ratioP1;P1;durP2;ratioP2;P2;SDS_P1;SDS_P2;PMS_P1;PMS_P2;Temp;Humidity;BMP_temperature;BMP_pressure;BME280_temperature;BME280_humidity;BME280_pressure;Samples;Min_cycle;Max_cycle;Signal;HPM_P1;HPM_P2
2023/08/18 00:01:41;;;;;;;4.78;2.40;;;;;;;;;;8221072;28;20045;-73
2023/08/18 00:05:41;;;;;;;4.03;2.50;;;;;;;;;;8221703;28;20033;-73
2023/08/18 00:09:43;;;;;;;2.22;2.03;;;;;;;;;;8225773;28;20288;-74
2023/08/18 00:13:43;;;;;;;3.90;2.47;;;;;;;;;;8208405;28;20141;-74
2023/08/18 00:17:44;;;;;;;2.80;2.05;;;;;;;;;;8219609;28;20523;-73
2023/08/18 00:21:44;;;;;;;3.60;2.53;;;;;;;;;;8230028;28;20040;-73
2023/08/18 00:25:44;;;;;;;4.38;2.22;;;;;;;;;;8223652;28;20026;-73
2023/08/18 00:29:44;;;;;;;2.60;2.40;;;;;;;;;;8223272;28;20041;-73
2023/08/18 00:33:44;;;;;;;2.90;2.50;;;;;;;;;;8222976;28;20214;-73
2023/08/18 00:37:45;;;;;;;2.53;2.22;;;;;;;;;;8227858;28;20609;-73
2023/08/18 00:41:46;;;;;;;4.27;2.03;;;;;;;;;;8224321;28;20030;-73
2023/08/18 00:45:46;;;;;;;2.35;2.22;;;;;;;;;;8224535;28;20049;-74
2023/08/18 00:49:47;;;;;;;7.30;2.95;;;;;;;;;;8222928;28;20142;-73
2023/08/18 00:53:47;;;;;;;3.00;2.17;;;;;;;;;;8226583;28;20108;-73
2023/08/18 00:57:48;;;;;;;3.08;2.70;;;;;;;;;;8222574;28;20015;-73
2023/08/18 01:01:49;;;;;;;4.88;2.67;;;;;;;;;;8220694;28;20053;-73
2023/08/18 01:05:49;;;;;;;3.05;2.75;;;;;;;;;;8222025;28;20029;-74
2023/08/18 01:09:49;;;;;;;7.38;3.17;;;;;;;;;;8224452;28;20125;-73
2023/08/18 01:14:08;;;;;;;4.95;3.30;;;;;;;;;;8222088;28;20053;-74
2023/08/18 01:18:10;;;;;;;4.00;3.50;;;;;;;;;;8223131;28;20125;-73
2023/08/18 01:22:11;;;;;;;3.97;3.00;;;;;;;;;;8231497;28;20034;-73
2023/08/18 01:26:12;;;;;;;3.78;3.47;;;;;;;;;;8223721;28;21092;-73
2023/08/18 01:30:13;;;;;;;4.15;3.33;;;;;;;;;;8219508;28;20171;-75
2023/08/18 01:34:14;;;;;;;5.80;3.03;;;;;;;;;;8221126;28;20034;-75
2023/08/18 01:38:15;;;;;;;8.20;3.58;;;;;;;;;;8222051;28;20509;-75
2023/08/18 01:42:15;;;;;;;5.32;3.75;;;;;;;;;;8221599;28;20525;-75
2023/08/18 01:46:16;;;;;;;4.53;3.97;;;;;;;;;;8220186;28;20038;-74
2023/08/18 01:50:16;;;;;;;3.63;3.33;;;;;;;;;;8219719;28;20098;-74
2023/08/18 01:54:16;;;;;;;3.83;3.53;;;;;;;;;;8222982;28;20085;-75
2023/08/18 01:58:16;;;;;;;6.40;4.22;;;;;;;;;;8228624;28;20143;-74
2023/08/18 02:02:17;;;;;;;4.13;3.65;;;;;;;;;;8222447;28;20129;-74
2023/08/18 02:06:18;;;;;;;7.57;3.70;;;;;;;;;;8219712;28;20022;-74
2023/08/18 02:10:18;;;;;;;6.80;3.60;;;;;;;;;;8223375;28;20034;-73
2023/08/18 02:14:18;;;;;;;5.03;3.70;;;;;;;;;;8224323;28;20100;-73
2023/08/18 02:18:19;;;;;;;4.18;3.03;;;;;;;;;;8220115;28;20041;-74
2023/08/18 02:22:19;;;;;;;4.70;3.83;;;;;;;;;;8220856;28;20033;-74
2023/08/18 02:26:19;;;;;;;4.70;3.40;;;;;;;;;;8226355;28;20065;-74
2023/08/18 02:30:20;;;;;;;6.72;4.20;;;;;;;;;;8228569;28;20037;-74
2023/08/18 02:34:20;;;;;;;3.40;3.20;;;;;;;;;;8228593;28;20073;-73
2023/08/18 02:38:20;;;;;;;4.53;3.70;;;;;;;;;;8226393;28;20026;-74
2023/08/18 02:42:21;;;;;;;4.50;3.77;;;;;;;;;;8226908;28;20269;-75
2023/08/18 02:46:21;;;;;;;3.80;3.50;;;;;;;;;;8225967;28;20046;-73
2023/08/18 02:50:21;;;;;;;6.97;3.40;;;;;;;;;;8229129;28;20030;-73
2023/08/18 02:54:21;;;;;;;3.30;3.10;;;;;;;;;;8224954;28;20038;-74
2023/08/18 02:58:22;;;;;;;3.20;2.90;;;;;;;;;;8225195;28;20208;-74
2023/08/18 03:02:22;;;;;;;3.60;3.30;;;;;;;;;;8227524;28;20073;-74
2023/08/18 03:06:22;;;;;;;4.63;3.60;;;;;;;;;;8227599;28;20626;-74
2023/08/18 03:10:22;;;;;;;4.53;3.83;;;;;;;;;;8227343;28;20540;-73
2023/08/18 03:14:23;;;;;;;4.65;4.00;;;;;;;;;;8224817;28;20069;-74
2023/08/18 03:18:23;;;;;;;4.28;3.85;;;;;;;;;;8226867;28;20602;-74
2023/08/18 03:22:23;;;;;;;3.70;3.40;;;;;;;;;;8231277;28;20037;-74
2023/08/18 03:26:23;;;;;;;4.03;3.35;;;;;;;;;;8228113;28;20084;-73
2023/08/18 03:30:23;;;;;;;4.10;3.70;;;;;;;;;;8223944;28;20038;-74
2023/08/18 03:34:24;;;;;;;4.38;3.72;;;;;;;;;;8225679;28;20076;-74
2023/08/18 03:38:25;;;;;;;3.88;3.58;;;;;;;;;;8229057;28;20022;-73
2023/08/18 03:42:25;;;;;;;3.85;3.20;;;;;;;;;;8226740;28;20347;-74
2023/08/18 03:46:25;;;;;;;3.38;2.85;;;;;;;;;;8233407;28;20147;-73
2023/08/18 03:50:25;;;;;;;6.67;3.40;;;;;;;;;;8225405;28;20026;-74
2023/08/18 03:54:25;;;;;;;4.82;3.42;;;;;;;;;;8223548;28;20293;-74
2023/08/18 03:58:25;;;;;;;3.72;3.42;;;;;;;;;;8228202;28;20109;-73
2023/08/18 04:02:27;;;;;;;5.60;4.30;;;;;;;;;;8226840;28;20047;-74
2023/08/18 04:06:27;;;;;;;4.63;3.95;;;;;;;;;;8222889;28;20463;-74
2023/08/18 04:10:27;;;;;;;5.20;3.53;;;;;;;;;;8222994;28;20503;-74
2023/08/18 04:14:27;;;;;;;5.97;3.40;;;;;;;;;;8228230;28;20887;-73
2023/08/18 04:18:28;;;;;;;4.43;3.30;;;;;;;;;;8223464;28;20065;-73
2023/08/18 04:22:28;;;;;;;5.18;3.92;;;;;;;;;;8227155;28;20033;-73
2023/08/18 04:26:29;;;;;;;5.00;4.38;;;;;;;;;;8224347;28;20949;-74
2023/08/18 04:30:29;;;;;;;3.90;3.58;;;;;;;;;;8223728;28;20888;-75
2023/08/18 04:34:29;;;;;;;5.05;4.55;;;;;;;;;;8219247;28;20030;-75
2023/08/18 04:38:30;;;;;;;6.75;4.40;;;;;;;;;;8218775;28;20183;-74
2023/08/18 04:42:30;;;;;;;8.73;5.15;;;;;;;;;;8225649;28;20038;-75
2023/08/18 04:46:31;;;;;;;10.20;4.35;;;;;;;;;;8213163;28;20081;-75
2023/08/18 04:50:31;;;;;;;6.50;5.28;;;;;;;;;;8222710;28;20091;-75
2023/08/18 04:54:31;;;;;;;4.13;3.63;;;;;;;;;;8219838;28;20387;-75
2023/08/18 04:58:31;;;;;;;4.78;4.22;;;;;;;;;;8222388;28;20091;-75
2023/08/18 05:02:32;;;;;;;7.20;4.85;;;;;;;;;;8224192;28;20030;-75
2023/08/18 05:06:32;;;;;;;6.57;4.85;;;;;;;;;;8224807;28;20030;-76
2023/08/18 05:10:32;;;;;;;5.28;4.45;;;;;;;;;;8224066;28;20495;-76
2023/08/18 05:14:32;;;;;;;8.40;4.47;;;;;;;;;;8225027;28;20065;-77
2023/08/18 05:18:33;;;;;;;5.00;4.50;;;;;;;;;;8225736;28;20073;-76
2023/08/18 05:22:33;;;;;;;4.70;4.30;;;;;;;;;;8225314;28;20155;-77
2023/08/18 05:26:34;;;;;;;6.00;4.55;;;;;;;;;;8223304;28;20098;-77
2023/08/18 05:30:34;;;;;;;4.60;4.20;;;;;;;;;;8225416;28;20160;-76
2023/08/18 05:34:34;;;;;;;6.63;4.65;;;;;;;;;;8221190;28;20798;-77
2023/08/18 05:38:34;;;;;;;5.97;4.43;;;;;;;;;;8226684;28;20030;-77
2023/08/18 05:42:34;;;;;;;7.00;4.38;;;;;;;;;;8226637;28;20031;-75
2023/08/18 05:46:35;;;;;;;6.80;5.00;;;;;;;;;;8224303;28;20039;-76
2023/08/18 05:50:35;;;;;;;7.27;4.50;;;;;;;;;;8225863;28;20054;-75
2023/08/18 05:54:35;;;;;;;5.25;4.75;;;;;;;;;;8230634;28;20141;-75
2023/08/18 05:58:35;;;;;;;5.03;4.53;;;;;;;;;;8225448;28;20030;-75
2023/08/18 06:02:35;;;;;;;5.57;4.80;;;;;;;;;;8228952;28;20038;-75
2023/08/18 06:06:36;;;;;;;7.93;5.10;;;;;;;;;;8231000;28;20030;-76
2023/08/18 06:10:36;;;;;;;6.63;4.47;;;;;;;;;;8230744;28;20030;-75
2023/08/18 06:14:36;;;;;;;9.48;4.90;;;;;;;;;;8231912;28;20033;-76
2023/08/18 06:18:36;;;;;;;7.57;5.00;;;;;;;;;;8244670;28;20038;-76
2023/08/18 06:22:37;;;;;;;5.60;4.68;;;;;;;;;;8230714;28;20026;-75
2023/08/18 06:26:37;;;;;;;4.82;4.43;;;;;;;;;;8227735;28;20024;-75
2023/08/18 06:30:38;;;;;;;6.57;4.68;;;;;;;;;;8230818;28;20121;-75
2023/08/18 06:34:38;;;;;;;4.25;3.88;;;;;;;;;;8231231;28;20033;-75
2023/08/18 06:38:38;;;;;;;6.03;4.30;;;;;;;;;;8226587;28;20028;-76
2023/08/18 06:42:38;;;;;;;4.97;4.15;;;;;;;;;;8228655;28;20029;-76
2023/08/18 06:46:39;;;;;;;8.35;3.70;;;;;;;;;;8226599;28;20038;-75
2023/08/18 06:50:39;;;;;;;4.57;3.50;;;;;;;;;;8227098;28;20041;-74
2023/08/18 06:54:39;;;;;;;6.00;3.55;;;;;;;;;;8228021;28;20034;-76
2023/08/18 06:58:39;;;;;;;4.93;3.63;;;;;;;;;;8225240;28;20098;-77
2023/08/18 07:02:39;;;;;;;6.40;3.90;;;;;;;;;;8226362;28;20038;-77
2023/08/18 07:06:42;;;;;;;6.63;3.40;;;;;;;;;;8226272;28;20112;-77
2023/08/18 07:10:43;;;;;;;5.10;3.65;;;;;;;;;;8222402;28;20034;-75
2023/08/18 07:14:43;;;;;;;6.03;3.70;;;;;;;;;;8218818;28;20023;-73
2023/08/18 07:18:43;;;;;;;3.57;3.20;;;;;;;;;;8228528;28;20140;-73
2023/08/18 07:22:43;;;;;;;7.07;3.38;;;;;;;;;;8228475;28;20034;-73
2023/08/18 07:26:44;;;;;;;4.85;3.92;;;;;;;;;;8228863;28;20027;-73
2023/08/18 07:30:44;;;;;;;7.30;3.40;;;;;;;;;;8225640;28;20038;-73
2023/08/18 07:34:45;;;;;;;5.50;3.40;;;;;;;;;;8222435;28;20029;-73
2023/08/18 07:38:46;;;;;;;4.13;3.25;;;;;;;;;;8225198;28;20027;-74
2023/08/18 07:42:46;;;;;;;5.35;3.22;;;;;;;;;;8224746;28;20049;-73
2023/08/18 07:46:46;;;;;;;6.17;3.40;;;;;;;;;;8222286;28;20038;-72
2023/08/18 07:50:47;;;;;;;3.33;2.83;;;;;;;;;;8228259;28;20279;-72
2023/08/18 07:54:47;;;;;;;4.05;3.40;;;;;;;;;;8224060;28;20018;-72
2023/08/18 07:58:48;;;;;;;5.90;3.07;;;;;;;;;;8226796;28;20468;-77
2023/08/18 08:02:48;;;;;;;5.97;3.00;;;;;;;;;;8225477;28;20038;-73
2023/08/18 08:06:49;;;;;;;6.87;2.97;;;;;;;;;;8224761;28;20943;-71
2023/08/18 08:10:50;;;;;;;3.30;3.00;;;;;;;;;;8224631;28;20412;-71
2023/08/18 08:14:50;;;;;;;4.30;3.85;;;;;;;;;;8225331;28;20404;-72
2023/08/18 08:18:50;;;;;;;6.30;3.10;;;;;;;;;;8222813;28;20503;-73
2023/08/18 08:22:51;;;;;;;7.47;3.38;;;;;;;;;;8223372;28;20375;-72
2023/08/18 08:26:51;;;;;;;4.47;3.33;;;;;;;;;;8224509;28;20035;-72
2023/08/18 08:30:51;;;;;;;4.00;3.60;;;;;;;;;;8223649;28;20043;-71
2023/08/18 08:34:51;;;;;;;3.73;3.10;;;;;;;;;;8226435;28;20018;-72
2023/08/18 08:38:51;;;;;;;5.25;3.97;;;;;;;;;;8221973;28;20085;-72
2023/08/18 08:42:54;;;;;;;5.83;4.00;;;;;;;;;;8224581;28;20121;-72
2023/08/18 08:46:54;;;;;;;;;;;;;;;;;;8221263;28;20066;-71
2023/08/18 08:50:55;;;;;;;5.43;3.58;;;;;;;;;;8223511;28;19917;-73
2023/08/18 08:55:00;;;;;;;6.20;3.80;;;;;;;;;;8224570;28;20293;-73
2023/08/18 08:59:01;;;;;;;7.32;3.72;;;;;;;;;;8222130;28;20031;-72
2023/08/18 09:03:01;;;;;;;6.25;3.72;;;;;;;;;;8219513;28;20193;-72
2023/08/18 09:07:01;;;;;;;4.65;3.67;;;;;;;;;;8222231;28;20120;-72
2023/08/18 09:11:02;;;;;;;6.82;3.80;;;;;;;;;;8223287;28;20149;-72
2023/08/18 09:15:02;;;;;;;6.93;3.80;;;;;;;;;;8224957;28;20032;-73
2023/08/18 09:19:02;;;;;;;5.93;3.77;;;;;;;;;;8224023;28;20035;-72
2023/08/18 09:23:03;;;;;;;4.57;3.93;;;;;;;;;;8226380;28;20364;-73
2023/08/18 09:27:07;;;;;;;9.30;3.40;;;;;;;;;;8231296;28;20034;-73
2023/08/18 09:31:07;;;;;;;5.70;3.88;;;;;;;;;;8223203;28;20531;-72
2023/08/18 09:35:11;;;;;;;8.10;4.25;;;;;;;;;;8221312;28;20026;-73
2023/08/18 09:39:12;;;;;;;8.55;3.88;;;;;;;;;;8225264;28;20034;-72
2023/08/18 09:43:12;;;;;;;5.90;3.67;;;;;;;;;;8226152;28;20447;-72
2023/08/18 09:47:14;;;;;;;4.75;3.40;;;;;;;;;;8219259;28;20043;-73
2023/08/18 09:51:15;;;;;;;5.13;3.80;;;;;;;;;;8227854;28;20026;-77
2023/08/18 09:55:16;;;;;;;6.40;3.63;;;;;;;;;;8226711;28;20129;-73
2023/08/18 09:59:20;;;;;;;5.50;3.60;;;;;;;;;;8222452;28;20030;-72
2023/08/18 10:03:21;;;;;;;5.68;3.47;;;;;;;;;;8220311;28;20752;-72
2023/08/18 10:07:22;;;;;;;5.80;3.72;;;;;;;;;;8223895;28;20628;-72
2023/08/18 10:11:22;;;;;;;5.73;3.50;;;;;;;;;;8219775;28;20022;-72
2023/08/18 10:15:24;;;;;;;6.63;3.70;;;;;;;;;;8219371;28;20056;-71
2023/08/18 10:19:24;;;;;;;;;;;;;;;;;;8217638;28;20408;-71
2023/08/18 10:23:29;;;;;;;4.10;3.40;;;;;;;;;;8221434;28;19987;-71
2023/08/18 10:27:29;;;;;;;4.40;3.50;;;;;;;;;;8222129;28;20124;-73
2023/08/18 10:31:29;;;;;;;6.57;3.40;;;;;;;;;;8222500;28;20042;-73
2023/08/18 10:35:29;;;;;;;8.18;3.47;;;;;;;;;;8226076;28;20089;-72
2023/08/18 10:39:36;;;;;;;3.55;3.22;;;;;;;;;;8220925;28;20018;-72
2023/08/18 10:43:45;;;;;;;5.45;3.63;;;;;;;;;;8223023;28;20076;-72
2023/08/18 10:47:46;;;;;;;6.72;3.17;;;;;;;;;;8225849;28;20049;-74
2023/08/18 10:51:48;;;;;;;10.70;3.58;;;;;;;;;;8228070;28;20019;-72
2023/08/18 10:55:48;;;;;;;7.00;3.85;;;;;;;;;;8227147;28;20085;-73
2023/08/18 10:59:51;;;;;;;8.87;3.13;;;;;;;;;;8230179;28;20434;-71
2023/08/18 11:03:52;;;;;;;4.00;3.60;;;;;;;;;;8233481;28;20829;-72
2023/08/18 11:07:52;;;;;;;7.13;4.00;;;;;;;;;;8224701;28;20089;-71
2023/08/18 11:11:52;;;;;;;5.25;3.50;;;;;;;;;;8228875;28;20112;-73
2023/08/18 11:15:53;;;;;;;7.43;3.10;;;;;;;;;;8224278;28;20297;-71
2023/08/18 11:19:54;;;;;;;6.50;3.80;;;;;;;;;;8232173;28;20061;-72
2023/08/18 11:23:55;;;;;;;10.20;4.28;;;;;;;;;;8231648;28;20895;-72
2023/08/18 11:27:55;;;;;;;7.57;4.30;;;;;;;;;;8231880;28;20049;-72
2023/08/18 11:31:55;;;;;;;7.88;3.85;;;;;;;;;;8230686;28;20092;-74
2023/08/18 11:35:55;;;;;;;5.38;4.20;;;;;;;;;;8228687;28;20033;-73
2023/08/18 11:39:56;;;;;;;8.23;4.70;;;;;;;;;;8232120;28;20809;-73
2023/08/18 11:43:56;;;;;;;6.90;3.90;;;;;;;;;;8229393;28;20140;-75
2023/08/18 11:48:00;;;;;;;6.18;4.40;;;;;;;;;;8229416;28;20038;-76
2023/08/18 11:52:05;;;;;;;8.85;4.35;;;;;;;;;;8227094;28;20110;-72
2023/08/18 11:56:05;;;;;;;6.88;4.20;;;;;;;;;;8230265;28;20022;-76
2023/08/18 12:00:11;;;;;;;5.57;3.60;;;;;;;;;;8231471;28;20022;-75
2023/08/18 12:04:11;;;;;;;5.50;3.88;;;;;;;;;;8223909;28;20285;-74
2023/08/18 12:08:11;;;;;;;7.57;3.90;;;;;;;;;;8227794;28;20022;-75
2023/08/18 12:12:13;;;;;;;7.30;3.83;;;;;;;;;;8228109;28;20285;-74
2023/08/18 12:16:14;;;;;;;5.47;3.83;;;;;;;;;;8218214;28;20470;-73
2023/08/18 12:20:15;;;;;;;3.87;3.10;;;;;;;;;;8225498;28;20053;-73
2023/08/18 12:24:15;;;;;;;7.05;3.85;;;;;;;;;;8237113;28;20022;-74
2023/08/18 12:28:15;;;;;;;6.70;3.60;;;;;;;;;;8228727;28;21079;-74
2023/08/18 12:32:16;;;;;;;4.38;3.20;;;;;;;;;;8229567;28;20041;-74
2023/08/18 12:36:19;;;;;;;6.50;3.30;;;;;;;;;;8226259;28;20022;-74
2023/08/18 12:40:19;;;;;;;4.88;3.38;;;;;;;;;;8224207;28;20023;-74
2023/08/18 12:44:20;;;;;;;9.85;3.78;;;;;;;;;;8227873;28;20066;-74
2023/08/18 12:48:20;;;;;;;6.23;3.80;;;;;;;;;;8228151;28;20046;-75
2023/08/18 12:52:21;;;;;;;5.75;3.60;;;;;;;;;;8226652;28;20289;-75
2023/08/18 12:56:22;;;;;;;5.25;3.40;;;;;;;;;;8224781;28;20047;-75
2023/08/18 13:00:22;;;;;;;5.38;3.50;;;;;;;;;;8225334;28;20041;-75
2023/08/18 13:04:23;;;;;;;6.00;3.20;;;;;;;;;;8223549;28;20053;-73
2023/08/18 13:08:23;;;;;;;5.93;2.93;;;;;;;;;;8224326;28;20379;-72
2023/08/18 13:12:23;;;;;;;7.50;3.50;;;;;;;;;;8225305;28;20045;-77
2023/08/18 13:16:23;;;;;;;6.03;2.88;;;;;;;;;;8232870;28;20066;-73
2023/08/18 13:20:23;;;;;;;4.00;2.95;;;;;;;;;;8230423;28;20038;-73
2023/08/18 13:24:25;;;;;;;5.47;2.50;;;;;;;;;;8228171;28;20026;-77
2023/08/18 13:28:25;;;;;;;6.30;2.70;;;;;;;;;;8227484;28;20021;-75
2023/08/18 13:32:25;;;;;;;8.13;2.70;;;;;;;;;;8224727;28;20133;-73
2023/08/18 13:36:25;;;;;;;9.30;2.80;;;;;;;;;;8221884;28;20022;-74
2023/08/18 13:40:25;;;;;;;5.60;2.30;;;;;;;;;;8226813;28;20034;-77
2023/08/18 13:44:26;;;;;;;5.90;2.53;;;;;;;;;;8227050;28;20031;-76
2023/08/18 13:48:26;;;;;;;5.18;2.38;;;;;;;;;;8225370;28;20113;-76
2023/08/18 13:52:26;;;;;;;6.20;2.30;;;;;;;;;;8227127;28;20109;-77
2023/08/18 13:56:27;;;;;;;4.05;2.10;;;;;;;;;;8228044;28;20031;-77
2023/08/18 14:00:27;;;;;;;6.60;2.00;;;;;;;;;;8226519;28;20273;-75
2023/08/18 14:04:27;;;;;;;7.27;2.10;;;;;;;;;;8218451;28;20026;-75
2023/08/18 14:08:27;;;;;;;6.32;2.08;;;;;;;;;;8218487;28;20353;-74
2023/08/18 14:12:28;;;;;;;6.80;2.17;;;;;;;;;;8227686;28;20030;-74
2023/08/18 14:16:28;;;;;;;6.25;2.00;;;;;;;;;;8225997;28;20121;-75
2023/08/18 14:20:28;;;;;;;6.65;2.35;;;;;;;;;;8228779;28;20026;-77
2023/08/18 14:24:28;;;;;;;5.63;1.92;;;;;;;;;;8232348;28;20133;-74
2023/08/18 14:28:29;;;;;;;8.97;2.13;;;;;;;;;;8231663;28;20034;-74
2023/08/18 14:32:30;;;;;;;4.30;1.80;;;;;;;;;;8231654;28;20042;-77
2023/08/18 14:36:30;;;;;;;3.38;1.70;;;;;;;;;;8229017;28;20083;-75
2023/08/18 14:40:34;;;;;;;7.05;1.77;;;;;;;;;;8231328;28;21007;-77
2023/08/18 14:44:34;;;;;;;4.63;1.60;;;;;;;;;;8230995;28;20113;-76
2023/08/18 14:48:34;;;;;;;4.77;2.03;;;;;;;;;;8228584;28;20085;-77
2023/08/18 14:52:35;;;;;;;7.73;1.80;;;;;;;;;;8233480;28;20037;-75
2023/08/18 14:56:35;;;;;;;7.20;1.70;;;;;;;;;;8226791;28;20088;-77
2023/08/18 15:00:36;;;;;;;7.67;1.83;;;;;;;;;;8227491;28;20058;-73
2023/08/18 15:04:37;;;;;;;6.77;1.90;;;;;;;;;;8233667;28;20030;-74
2023/08/18 15:08:37;;;;;;;6.70;2.15;;;;;;;;;;8228941;28;20022;-73
2023/08/18 15:12:38;;;;;;;11.27;2.10;;;;;;;;;;8224614;28;20034;-78
2023/08/18 15:16:38;;;;;;;7.17;1.80;;;;;;;;;;8224945;28;20038;-73
2023/08/18 15:20:39;;;;;;;4.53;2.10;;;;;;;;;;8228510;28;20128;-74
2023/08/18 15:24:39;;;;;;;2.55;1.83;;;;;;;;;;8238849;28;20045;-77
2023/08/18 15:28:39;;;;;;;4.93;2.03;;;;;;;;;;8225313;28;20156;-77
2023/08/18 15:32:39;;;;;;;4.15;1.80;;;;;;;;;;8222028;28;20041;-76
2023/08/18 15:36:40;;;;;;;5.22;2.05;;;;;;;;;;8223854;28;20022;-73
2023/08/18 15:40:41;;;;;;;6.57;2.10;;;;;;;;;;8222707;28;21927;-74
2023/08/18 15:44:41;;;;;;;7.63;1.73;;;;;;;;;;8224226;28;20723;-73
2023/08/18 15:48:41;;;;;;;3.20;1.60;;;;;;;;;;8222192;28;20046;-78
2023/08/18 15:52:41;;;;;;;3.17;1.60;;;;;;;;;;8232573;28;20334;-77
2023/08/18 15:56:42;;;;;;;6.72;1.70;;;;;;;;;;8223431;28;20053;-75
2023/08/18 16:00:43;;;;;;;8.88;1.98;;;;;;;;;;8230024;28;20368;-75
2023/08/18 16:04:43;;;;;;;7.78;2.13;;;;;;;;;;8227786;28;20069;-77
2023/08/18 16:08:45;;;;;;;7.47;1.90;;;;;;;;;;8227969;28;20050;-74
2023/08/18 16:12:45;;;;;;;5.40;1.73;;;;;;;;;;8228240;28;20030;-72
2023/08/18 16:16:45;;;;;;;7.18;1.83;;;;;;;;;;8229313;28;20574;-72
2023/08/18 16:20:45;;;;;;;4.95;1.98;;;;;;;;;;8226370;28;20026;-72
2023/08/18 16:24:46;;;;;;;7.25;1.90;;;;;;;;;;8235182;28;20030;-73
2023/08/18 16:28:46;;;;;;;5.03;2.00;;;;;;;;;;8231017;28;20026;-72
2023/08/18 16:32:49;;;;;;;5.77;1.90;;;;;;;;;;8229279;28;20170;-76
2023/08/18 16:36:49;;;;;;;4.65;1.80;;;;;;;;;;8228525;28;20034;-73
2023/08/18 16:40:50;;;;;;;4.10;1.70;;;;;;;;;;8225408;28;20032;-73
2023/08/18 16:44:51;;;;;;;4.82;1.67;;;;;;;;;;8222989;28;20018;-74
2023/08/18 16:48:51;;;;;;;2.85;1.50;;;;;;;;;;8227192;28;20042;-75
2023/08/18 16:52:51;;;;;;;4.75;2.13;;;;;;;;;;8224271;28;20021;-75
2023/08/18 16:56:52;;;;;;;3.63;1.80;;;;;;;;;;8224284;28;20030;-73
2023/08/18 17:00:52;;;;;;;4.63;1.88;;;;;;;;;;8222423;28;20041;-75
2023/08/18 17:04:52;;;;;;;10.18;2.33;;;;;;;;;;8217747;28;20038;-76
2023/08/18 17:08:54;;;;;;;4.20;2.08;;;;;;;;;;8221849;28;20070;-76
2023/08/18 17:12:54;;;;;;;7.90;2.47;;;;;;;;;;8223615;28;20071;-75
2023/08/18 17:16:55;;;;;;;4.43;2.13;;;;;;;;;;8221461;28;20050;-75
2023/08/18 17:20:55;;;;;;;7.30;2.57;;;;;;;;;;8223602;28;20084;-77
2023/08/18 17:24:56;;;;;;;4.72;1.92;;;;;;;;;;8225843;28;20034;-74
2023/08/18 17:28:56;;;;;;;7.53;2.07;;;;;;;;;;8227617;28;20104;-76
2023/08/18 17:32:56;;;;;;;3.40;1.80;;;;;;;;;;8224554;28;20030;-76
2023/08/18 17:36:57;;;;;;;4.90;2.10;;;;;;;;;;8223028;28;20021;-75
2023/08/18 17:40:57;;;;;;;5.05;1.70;;;;;;;;;;8228033;28;20238;-79
2023/08/18 17:44:58;;;;;;;3.33;1.90;;;;;;;;;;8227329;28;20061;-78
2023/08/18 17:48:58;;;;;;;4.87;2.20;;;;;;;;;;8226033;28;20334;-74
2023/08/18 17:52:58;;;;;;;2.55;1.80;;;;;;;;;;8225575;28;20133;-72
2023/08/18 17:56:58;;;;;;;5.82;1.83;;;;;;;;;;8230872;28;20126;-74
2023/08/18 18:00:59;;;;;;;2.67;1.70;;;;;;;;;;8235026;28;20122;-73
2023/08/18 18:04:59;;;;;;;3.67;2.10;;;;;;;;;;8235539;28;20135;-74
2023/08/18 18:09:00;;;;;;;4.07;1.70;;;;;;;;;;8237142;28;20076;-74
2023/08/18 18:13:02;;;;;;;3.78;1.83;;;;;;;;;;8238210;28;20281;-74
2023/08/18 18:17:03;;;;;;;3.58;1.80;;;;;;;;;;8239611;28;20131;-74
2023/08/18 18:21:03;;;;;;;3.67;1.75;;;;;;;;;;8239547;28;20645;-74
2023/08/18 18:25:04;;;;;;;5.40;1.92;;;;;;;;;;8239725;28;20180;-73
2023/08/18 18:29:04;;;;;;;3.50;1.55;;;;;;;;;;8241812;28;20417;-74
2023/08/18 18:33:04;;;;;;;3.80;1.92;;;;;;;;;;8236444;28;20045;-74
2023/08/18 18:37:06;;;;;;;6.22;1.70;;;;;;;;;;8239226;28;20030;-74
2023/08/18 18:41:06;;;;;;;3.55;1.80;;;;;;;;;;8242857;28;20030;-73
2023/08/18 18:45:06;;;;;;;5.30;1.70;;;;;;;;;;8236626;28;20023;-74
2023/08/18 18:49:06;;;;;;;5.85;1.60;;;;;;;;;;8234689;28;20035;-73
2023/08/18 18:53:07;;;;;;;4.70;1.65;;;;;;;;;;8236560;28;20184;-77
2023/08/18 18:57:07;;;;;;;5.22;1.83;;;;;;;;;;8236330;28;20443;-75
2023/08/18 19:01:07;;;;;;;6.45;1.98;;;;;;;;;;8235286;28;20157;-74
2023/08/18 19:05:08;;;;;;;5.15;1.75;;;;;;;;;;8233057;28;20121;-76
2023/08/18 19:09:09;;;;;;;3.90;2.30;;;;;;;;;;8228144;28;20616;-74
2023/08/18 19:13:09;;;;;;;2.95;1.90;;;;;;;;;;8229207;28;20812;-74
2023/08/18 19:17:10;;;;;;;5.20;1.98;;;;;;;;;;8228102;28;20034;-75
2023/08/18 19:21:10;;;;;;;7.20;1.90;;;;;;;;;;8232913;28;20030;-76
2023/08/18 19:25:11;;;;;;;3.05;1.50;;;;;;;;;;8231316;28;20502;-75
2023/08/18 19:29:11;;;;;;;3.25;1.70;;;;;;;;;;8231540;28;20019;-74
2023/08/18 19:33:12;;;;;;;3.58;1.70;;;;;;;;;;8229971;28;20044;-75
2023/08/18 19:37:12;;;;;;;5.70;1.90;;;;;;;;;;8227530;28;20034;-74
2023/08/18 19:41:12;;;;;;;3.22;1.63;;;;;;;;;;8230735;28;20976;-75
2023/08/18 19:45:12;;;;;;;3.20;1.65;;;;;;;;;;8228586;28;20038;-75
2023/08/18 19:49:12;;;;;;;2.80;2.03;;;;;;;;;;8230877;28;20022;-74
2023/08/18 19:53:13;;;;;;;5.95;2.08;;;;;;;;;;8229394;28;20157;-75
2023/08/18 19:57:13;;;;;;;2.40;1.70;;;;;;;;;;8228857;28;20810;-74
2023/08/18 20:01:13;;;;;;;2.38;1.90;;;;;;;;;;8227187;28;21108;-75
2023/08/18 20:05:14;;;;;;;5.20;1.70;;;;;;;;;;8241513;28;20030;-74
2023/08/18 20:09:15;;;;;;;3.60;1.42;;;;;;;;;;8228675;28;20038;-74
2023/08/18 20:13:15;;;;;;;4.20;1.70;;;;;;;;;;8225707;28;20041;-72
2023/08/18 20:17:15;;;;;;;7.50;1.67;;;;;;;;;;8225369;28;20708;-75
2023/08/18 20:21:15;;;;;;;3.95;1.70;;;;;;;;;;8219510;28;20034;-74
2023/08/18 20:25:16;;;;;;;3.78;2.10;;;;;;;;;;8222247;28;20042;-75
2023/08/18 20:29:16;;;;;;;2.83;1.60;;;;;;;;;;8224920;28;20029;-74
2023/08/18 20:33:16;;;;;;;3.53;1.57;;;;;;;;;;8227806;28;20220;-76
2023/08/18 20:37:17;;;;;;;3.88;2.00;;;;;;;;;;8224067;28;20109;-77
2023/08/18 20:41:17;;;;;;;2.70;1.88;;;;;;;;;;8227651;28;20022;-76
2023/08/18 20:45:17;;;;;;;4.65;1.98;;;;;;;;;;8225245;28;20068;-76
2023/08/18 20:49:17;;;;;;;3.10;1.80;;;;;;;;;;8226107;28;20145;-75
2023/08/18 20:53:18;;;;;;;4.40;1.80;;;;;;;;;;8223102;28;20030;-74
2023/08/18 20:57:18;;;;;;;6.63;2.00;;;;;;;;;;8224280;28;20019;-75
2023/08/18 21:01:18;;;;;;;5.10;1.93;;;;;;;;;;8224787;28;20505;-75
2023/08/18 21:05:18;;;;;;;2.42;1.77;;;;;;;;;;8218966;28;20309;-75
2023/08/18 21:09:19;;;;;;;2.97;1.90;;;;;;;;;;8227429;28;21033;-76
2023/08/18 21:17:11;;;;;;;3.75;1.80;;;;;;;;;;8280111;28;20569;-60
2023/08/18 21:21:11;;;;;;;4.57;1.90;;;;;;;;;;8266353;28;20026;-60
2023/08/18 21:25:14;;;;;;;3.25;1.80;;;;;;;;;;8260838;28;20025;-60
2023/08/18 21:29:14;;;;;;;3.42;2.13;;;;;;;;;;8265639;28;20140;-60
2023/08/18 21:33:15;;;;;;;5.03;1.90;;;;;;;;;;8288051;28;20072;-60
2023/08/18 21:37:15;;;;;;;4.00;1.70;;;;;;;;;;8295502;28;20055;-61
2023/08/18 21:41:16;;;;;;;2.50;1.60;;;;;;;;;;8291297;28;20027;-60
2023/08/18 21:45:18;;;;;;;4.25;1.73;;;;;;;;;;8291131;28;20100;-61
2023/08/18 21:49:19;;;;;;;5.13;1.67;;;;;;;;;;8293325;28;20104;-60
2023/08/18 21:53:21;;;;;;;3.30;1.80;;;;;;;;;;8293306;28;20025;-60
2023/08/18 21:57:21;;;;;;;5.45;1.70;;;;;;;;;;8295032;28;20021;-60
2023/08/18 22:01:21;;;;;;;4.22;1.77;;;;;;;;;;8292146;28;20033;-60
2023/08/18 22:05:22;;;;;;;3.63;1.75;;;;;;;;;;8286839;28;20026;-59
2023/08/18 22:09:22;;;;;;;1.90;1.45;;;;;;;;;;8292062;28;20183;-60
2023/08/18 22:13:22;;;;;;;3.90;1.73;;;;;;;;;;8292304;28;20427;-60
2023/08/18 22:17:22;;;;;;;3.15;1.55;;;;;;;;;;8290785;28;20282;-60
2023/08/18 22:21:23;;;;;;;2.65;1.80;;;;;;;;;;8292857;28;20053;-60
2023/08/18 22:25:23;;;;;;;7.60;2.17;;;;;;;;;;8294701;28;20025;-60
2023/08/18 22:29:23;;;;;;;4.60;2.00;;;;;;;;;;8272288;28;20018;-60
2023/08/18 22:33:23;;;;;;;2.65;1.85;;;;;;;;;;8271591;28;20044;-61
2023/08/18 22:37:24;;;;;;;2.28;1.55;;;;;;;;;;8271743;28;20033;-60
2023/08/18 22:41:24;;;;;;;3.45;1.70;;;;;;;;;;8273033;28;20375;-60
2023/08/18 22:45:24;;;;;;;2.90;1.60;;;;;;;;;;8273517;28;20107;-60
2023/08/18 22:49:25;;;;;;;2.57;1.90;;;;;;;;;;8273165;28;20030;-60
2023/08/18 22:53:25;;;;;;;4.13;1.70;;;;;;;;;;8273430;28;20036;-60
2023/08/18 22:57:25;;;;;;;3.03;1.80;;;;;;;;;;8270550;28;20176;-60
2023/08/18 23:01:26;;;;;;;4.07;1.70;;;;;;;;;;8275388;28;20508;-60
2023/08/18 23:05:26;;;;;;;2.05;1.55;;;;;;;;;;8270951;28;20056;-60
2023/08/18 23:09:27;;;;;;;5.47;2.40;;;;;;;;;;8263465;28;20030;-61
2023/08/18 23:13:27;;;;;;;2.75;1.67;;;;;;;;;;8268735;28;20111;-60
2023/08/18 23:17:27;;;;;;;5.47;2.03;;;;;;;;;;8269368;28;21042;-61
2023/08/18 23:21:27;;;;;;;4.43;2.08;;;;;;;;;;8267888;28;20061;-61
2023/08/18 23:25:28;;;;;;;4.83;1.90;;;;;;;;;;8266077;28;20041;-60
2023/08/18 23:29:29;;;;;;;3.57;1.60;;;;;;;;;;8261585;28;20033;-61
2023/08/18 23:33:29;;;;;;;4.75;1.90;;;;;;;;;;8266075;28;20045;-61
2023/08/18 23:37:30;;;;;;;3.20;2.00;;;;;;;;;;8264944;28;21056;-61
2023/08/18 23:41:30;;;;;;;4.65;1.70;;;;;;;;;;8270405;28;20022;-60
2023/08/18 23:45:30;;;;;;;4.88;1.90;;;;;;;;;;8271337;28;20044;-60
2023/08/18 23:49:31;;;;;;;3.87;2.03;;;;;;;;;;8270219;28;20053;-61
2023/08/18 23:53:31;;;;;;;3.80;1.70;;;;;;;;;;8270636;28;20279;-60
2023/08/18 23:57:32;;;;;;;4.63;1.67;;;;;;;;;;8273427;28;20059;-60
